Novotroitskoe, Kazakhstan
Current Conditions -  °F | °C
As of 7:30 AM on Tuesday 25 Nov 2014 (Local Time) from UCFM Reporting Station
Light Rain Light Rain  
Wind Chill: 26°   Ceiling: 200
Heat Index: 32°   Visibility: 4mi
Dew Point: 30°   Wind: 7mph
Humidity: 93%   Direction: 300°WNW
Pressure: 30.21"   Gusts: NA
Location:  43.7°N, 73.78°E
Report Text: UCFM 250130Z 30003MPS 6000 -RA OVC002 M00/M01 Q1023 R26/29//50TEMPO 2000 BR
Loading
Personal Weather Stations






























Interactive Weather Map New forecast layout! Learn more

10-Day Weather Forecast

Advertisements
Track Severe Weather on mobile